aviador You're here:

KVAD Decoded Metar

VALDOSTA in GA, USA
Report Time2017-11-21 05:56:00
UTC Time2017-11-21 06:23:27
Flight Rules vfr VFR
Wind060° at 04 kt
W.Decomp.*RWY 36: 1.8 kt HW 3.6 kt RCW
W.Rank060° ranks 2
Current wind is below 060° avg. (5.4)
Visibility9999 m
Phenomena:N/A
Clouds:N/A
Expected CloudBase > 400 ft AGL from Temp-Dew spread
CeilingNone
Temp11°C (ISA -4)
Dew Point10°C (94% RH)
AAT9.6°C
QNH1020 hPa
Density Alt-259 ft
Elevation233 ft
Report Wrong Elevation
Raw Report
KVAD 210556Z AUTO 06004KT 10SM CLR 11/10 A3013 RMK AO2 SLP205
T01110095 10154 20111 58005 $=

Extra information for KVAD:More info

Metar Taf Metar & Taf Last 4 Metars F.Rules Stats Wind Profile Meteogram Temp Stats Airport Information Weather charts Add Link Nearby VenuesMetar ALERT Operation Metar Decoded Social comments

AIRNAV info for KVAD